createdAt,value
2018-10-06T00:00:43.313Z,99.99
2018-10-06T00:01:43.255Z,99.99
2018-10-06T00:02:43.236Z,99.99
2018-10-06T00:03:43.232Z,99.99
2018-10-06T00:04:46.330Z,99.99
2018-10-06T00:05:43.108Z,99.99
2018-10-06T00:06:43.078Z,99.99
2018-10-06T00:07:43.014Z,99.99
2018-10-06T00:08:42.988Z,99.99
2018-10-06T00:09:42.942Z,99.99
2018-10-06T00:10:42.905Z,99.99
2018-10-06T00:11:42.896Z,99.99
2018-10-06T00:12:42.845Z,99.99
2018-10-06T00:13:42.797Z,99.99
2018-10-06T00:14:43.405Z,99.99
2018-10-06T00:15:42.714Z,97.84
2018-10-06T00:16:42.673Z,91.74
2018-10-06T00:17:42.663Z,96.32
2018-10-06T00:18:42.594Z,95.41
2018-10-06T00:19:42.549Z,99.03
2018-10-06T00:20:42.529Z,97.03
2018-10-06T00:21:42.496Z,93.41
2018-10-06T00:22:42.456Z,89.03
2018-10-06T00:23:42.401Z,90.56
2018-10-06T00:24:42.373Z,93.94
2018-10-06T00:25:42.334Z,94.13
2018-10-06T00:26:42.289Z,84.42
2018-10-06T00:27:42.252Z,58.84
2018-10-06T00:28:42.202Z,57.80
2018-10-06T00:29:42.186Z,65.42
2018-10-06T00:30:42.127Z,72.85
2018-10-06T00:31:42.100Z,76.18
2018-10-06T00:32:42.053Z,84.23
2018-10-06T00:33:42.020Z,69.85
2018-10-06T00:34:41.985Z,66.46
2018-10-06T00:35:41.933Z,89.65
2018-10-06T00:36:41.897Z,89.08
2018-10-06T00:37:41.862Z,81.95
2018-10-06T00:38:41.849Z,87.94
2018-10-06T00:39:41.798Z,84.23
2018-10-06T00:40:41.743Z,77.37
2018-10-06T00:41:41.721Z,76.42
2018-10-06T00:42:41.712Z,72.05
2018-10-06T00:43:41.633Z,70.62
2018-10-06T00:44:41.624Z,64.72
2018-10-06T00:45:41.539Z,72.81
2018-10-06T00:46:41.512Z,74.43
2018-10-06T00:47:41.483Z,69.48
2018-10-06T00:48:41.444Z,71.86
2018-10-06T00:49:41.391Z,67.10
2018-10-06T00:50:41.357Z,61.10
2018-10-06T00:51:41.321Z,68.24
2018-10-06T00:52:41.295Z,63.01
2018-10-06T00:53:41.234Z,56.05
2018-10-06T00:54:41.220Z,66.53
2018-10-06T00:55:41.176Z,78.04
2018-10-06T00:56:41.121Z,74.67
2018-10-06T00:57:41.075Z,67.10
2018-10-06T00:58:41.050Z,72.49
2018-10-06T00:59:40.997Z,79.62
2018-10-06T01:00:40.959Z,74.20
2018-10-06T01:01:40.925Z,76.10
2018-10-06T01:02:40.883Z,77.72
2018-10-06T01:03:40.823Z,75.81
2018-10-06T01:04:40.792Z,71.53
2018-10-06T01:05:40.776Z,65.16
2018-10-06T01:06:40.717Z,61.93
2018-10-06T01:07:40.744Z,62.69
2018-10-06T01:08:40.650Z,60.78
2018-10-06T01:09:40.632Z,57.84
2018-10-06T01:10:40.563Z,66.11
2018-10-06T01:11:40.526Z,63.54
2018-10-06T01:12:40.480Z,56.41
2018-10-06T01:13:40.468Z,57.45
2018-10-06T01:14:40.408Z,51.46
2018-10-06T01:15:40.365Z,54.89
2018-10-06T01:16:40.315Z,64.21
2018-10-06T01:17:40.277Z,62.78
2018-10-06T01:18:40.318Z,59.07
2018-10-06T01:19:40.217Z,63.42
2018-10-06T01:20:40.174Z,66.08
2018-10-06T01:21:40.133Z,66.84
2018-10-06T01:22:40.102Z,68.07
2018-10-06T01:23:40.057Z,57.14
2018-10-06T01:24:40.005Z,44.90
2018-10-06T01:25:39.960Z,50.60
2018-10-06T01:26:39.959Z,49.06
2018-10-06T01:27:39.921Z,50.68
2018-10-06T01:28:39.841Z,54.48
2018-10-06T01:29:39.822Z,47.82
2018-10-06T01:30:39.788Z,42.24
2018-10-06T01:31:39.731Z,45.73
2018-10-06T01:32:39.702Z,37.93
2018-10-06T01:33:39.642Z,36.91
2018-10-06T01:34:39.621Z,40.23
2018-10-06T01:35:39.579Z,40.90
2018-10-06T01:36:39.520Z,46.51
2018-10-06T01:37:39.498Z,50.70
2018-10-06T01:38:39.447Z,60.02
2018-10-06T01:39:39.403Z,59.55
2018-10-06T01:40:39.361Z,59.99
2018-10-06T01:41:39.368Z,55.52
2018-10-06T01:42:39.344Z,59.90
2018-10-06T01:43:39.237Z,57.71
2018-10-06T01:44:39.204Z,59.80
2018-10-06T01:45:39.196Z,52.48
2018-10-06T01:46:39.135Z,51.53
2018-10-06T01:47:39.077Z,55.15
2018-10-06T01:48:39.046Z,55.24
2018-10-06T01:49:39.018Z,47.73
2018-10-06T01:50:38.963Z,45.07
2018-10-06T01:51:38.921Z,44.04
2018-10-06T01:52:38.886Z,42.43
2018-10-06T01:53:38.877Z,58.98
2018-10-06T01:54:38.811Z,64.50
2018-10-06T01:55:38.772Z,70.10
2018-10-06T01:56:38.727Z,74.10
2018-10-06T01:57:38.691Z,72.77
2018-10-06T01:58:38.647Z,66.87
2018-10-06T01:59:38.607Z,67.16
2018-10-06T02:00:38.562Z,62.78
2018-10-06T02:01:38.543Z,67.07
2018-10-06T02:02:38.506Z,74.29
2018-10-06T02:03:38.462Z,69.15
2018-10-06T02:04:38.414Z,72.96
2018-10-06T02:05:38.393Z,68.96
2018-10-06T02:06:38.339Z,68.33
2018-10-06T02:07:38.286Z,69.95
2018-10-06T02:08:38.246Z,75.85
2018-10-06T02:09:38.219Z,72.58
2018-10-06T02:10:38.168Z,75.91
2018-10-06T02:11:38.841Z,74.67
2018-10-06T02:12:38.121Z,73.63
2018-10-06T02:13:38.059Z,72.77
2018-10-06T02:14:38.009Z,61.83
2018-10-06T02:15:37.970Z,63.07
2018-10-06T02:16:37.933Z,64.59
2018-10-06T02:17:37.922Z,55.93
2018-10-06T02:18:37.852Z,54.60
2018-10-06T02:19:37.804Z,57.17
2018-10-06T02:20:37.796Z,53.27
2018-10-06T02:21:37.741Z,53.17
2018-10-06T02:22:37.689Z,56.31
2018-10-06T02:23:37.632Z,49.91
2018-10-06T02:24:37.604Z,44.90
2018-10-06T02:25:37.568Z,42.52
2018-10-06T02:26:37.561Z,47.94
2018-10-06T02:27:37.515Z,56.60
2018-10-06T02:28:37.452Z,59.93
2018-10-06T02:29:37.413Z,66.02
2018-10-06T02:30:37.375Z,63.26
2018-10-06T02:31:37.371Z,59.83
2018-10-06T02:32:37.316Z,61.55
2018-10-06T02:33:37.288Z,67.16
2018-10-06T02:34:37.202Z,62.69
2018-10-06T02:35:37.177Z,56.63
2018-10-06T02:36:37.138Z,56.05
2018-10-06T02:37:37.086Z,54.25
2018-10-06T02:38:37.060Z,71.00
2018-10-06T02:39:37.018Z,87.27
2018-10-06T02:40:36.982Z,91.08
2018-10-06T02:41:36.969Z,90.42
2018-10-06T02:42:36.882Z,91.65
2018-10-06T02:43:36.852Z,88.99
2018-10-06T02:44:36.803Z,89.41
2018-10-06T02:45:36.777Z,92.84
2018-10-06T02:46:36.719Z,91.79
2018-10-06T02:47:36.677Z,88.18
2018-10-06T02:48:36.684Z,88.08
2018-10-06T02:49:36.601Z,91.13
2018-10-06T02:50:36.575Z,92.94
2018-10-06T02:51:36.532Z,89.61
2018-10-06T02:52:36.506Z,95.12
2018-10-06T02:53:36.447Z,98.46
2018-10-06T02:54:36.458Z,96.36
2018-10-06T02:55:36.402Z,95.32
2018-10-06T02:56:36.342Z,99.22
2018-10-06T02:57:36.309Z,99.99
2018-10-06T02:58:36.261Z,98.74
2018-10-06T02:59:36.215Z,86.94
2018-10-06T03:00:36.186Z,79.51
2018-10-06T03:01:36.122Z,85.13
2018-10-06T03:02:36.094Z,91.89
2018-10-06T03:03:36.074Z,91.70
2018-10-06T03:04:36.020Z,90.94
2018-10-06T03:05:35.973Z,97.51
2018-10-06T03:06:35.927Z,84.27
2018-10-06T03:07:35.918Z,87.17
2018-10-06T03:08:35.845Z,94.22
2018-10-06T03:09:35.811Z,92.27
2018-10-06T03:10:35.793Z,83.36
2018-10-06T03:11:35.762Z,91.27
2018-10-06T03:12:35.696Z,99.99
2018-10-06T03:13:35.696Z,99.99
2018-10-06T03:14:35.628Z,95.41
2018-10-06T03:15:35.582Z,90.08
2018-10-06T03:16:35.546Z,98.84
2018-10-06T03:17:35.498Z,99.99
2018-10-06T03:18:35.448Z,97.31
2018-10-06T03:19:35.427Z,95.75
2018-10-06T03:20:35.364Z,97.36
2018-10-06T03:21:35.343Z,93.74
2018-10-06T03:22:35.296Z,92.70
2018-10-06T03:23:35.265Z,90.13
2018-10-06T03:24:35.236Z,90.84
2018-10-06T03:25:35.186Z,93.13
2018-10-06T03:26:35.130Z,84.76
2018-10-06T03:27:35.127Z,79.81
2018-10-06T03:28:35.067Z,74.87
2018-10-06T03:29:35.023Z,66.53
2018-10-06T03:30:35.004Z,82.00
2018-10-06T03:31:34.936Z,86.47
2018-10-06T03:32:34.893Z,74.67
2018-10-06T03:33:34.851Z,74.04
2018-10-06T03:34:34.854Z,80.42
2018-10-06T03:35:34.800Z,85.75
2018-10-06T03:36:34.736Z,86.22
2018-10-06T03:37:34.736Z,82.99
2018-10-06T03:38:34.677Z,81.18
2018-10-06T03:39:34.619Z,84.13
2018-10-06T03:40:34.588Z,90.51
2018-10-06T03:41:34.550Z,83.52
2018-10-06T03:42:34.504Z,85.71
2018-10-06T03:43:34.469Z,87.42
2018-10-06T03:44:34.439Z,70.49
2018-10-06T03:45:34.397Z,65.92
2018-10-06T03:46:34.347Z,66.97
2018-10-06T03:47:34.313Z,70.05
2018-10-06T03:48:34.264Z,73.28
2018-10-06T03:49:34.239Z,77.19
2018-10-06T03:50:34.187Z,79.85
2018-10-06T03:51:34.140Z,87.85
2018-10-06T03:52:34.095Z,91.42
2018-10-06T03:53:34.061Z,88.94
2018-10-06T03:54:34.026Z,88.94
2018-10-06T03:55:33.989Z,87.23
2018-10-06T03:56:33.945Z,88.56
2018-10-06T03:57:33.906Z,77.91
2018-10-06T03:58:33.869Z,75.53
2018-10-06T03:59:33.822Z,77.68
2018-10-06T04:00:33.807Z,77.77
2018-10-06T04:01:33.754Z,69.21
2018-10-06T04:02:33.734Z,68.46
2018-10-06T04:03:33.666Z,67.69
2018-10-06T04:04:33.623Z,59.61
2018-10-06T04:05:33.580Z,55.43
2018-10-06T04:06:33.537Z,47.44
2018-10-06T04:07:33.504Z,47.73
2018-10-06T04:08:33.465Z,49.44
2018-10-06T04:09:33.433Z,48.96
2018-10-06T04:10:33.395Z,46.68
2018-10-06T04:11:33.346Z,48.49
2018-10-06T04:12:33.324Z,47.63
2018-10-06T04:13:33.269Z,49.44
2018-10-06T04:14:33.235Z,52.48
2018-10-06T04:15:33.182Z,53.69
2018-10-06T04:16:33.168Z,53.12
2018-10-06T04:17:33.099Z,49.79
2018-10-06T04:18:33.072Z,51.60
2018-10-06T04:19:33.031Z,46.28
2018-10-06T04:20:32.986Z,44.76
2018-10-06T04:21:32.965Z,42.29
2018-10-06T04:22:32.920Z,41.07
2018-10-06T04:23:32.883Z,43.16
2018-10-06T04:24:32.831Z,46.19
2018-10-06T04:25:32.787Z,42.86
2018-10-06T04:26:32.755Z,43.33
2018-10-06T04:27:32.707Z,45.04
2018-10-06T04:28:32.693Z,45.23
2018-10-06T04:29:32.645Z,45.42
2018-10-06T04:30:32.597Z,46.28
2018-10-06T04:31:32.552Z,51.22
2018-10-06T04:32:32.508Z,51.79
2018-10-06T04:33:32.453Z,50.93
2018-10-06T04:34:32.428Z,49.32
2018-10-06T04:35:32.383Z,45.80
2018-10-06T04:36:32.338Z,41.34
2018-10-06T04:37:32.341Z,40.39
2018-10-06T04:38:32.305Z,39.62
2018-10-06T04:39:32.218Z,32.40
2018-10-06T04:40:32.188Z,35.16
2018-10-06T04:41:32.165Z,36.30
2018-10-06T04:42:32.108Z,38.29
2018-10-06T04:43:32.081Z,39.72
2018-10-06T04:44:32.042Z,40.95
2018-10-06T04:45:31.985Z,38.39
2018-10-06T04:46:31.932Z,37.25
2018-10-06T04:47:31.923Z,37.35
2018-10-06T04:48:31.870Z,38.58
2018-10-06T04:49:31.817Z,40.29
2018-10-06T04:50:31.794Z,41.34
2018-10-06T04:51:31.752Z,43.33
2018-10-06T04:52:31.708Z,41.72
2018-10-06T04:53:31.688Z,42.65
2018-10-06T04:54:31.612Z,42.38
2018-10-06T04:55:31.585Z,37.82
2018-10-06T04:56:31.567Z,35.54
2018-10-06T04:57:31.505Z,32.21
2018-10-06T04:58:31.461Z,28.89
2018-10-06T04:59:31.419Z,29.17
2018-10-06T05:00:31.383Z,30.03
2018-10-06T05:01:31.345Z,30.41
2018-10-06T05:02:31.318Z,31.74
2018-10-06T05:03:31.294Z,32.03
2018-10-06T05:04:31.212Z,29.55
2018-10-06T05:05:31.165Z,29.55
2018-10-06T05:06:31.158Z,30.51
2018-10-06T05:07:31.115Z,31.84
2018-10-06T05:08:31.041Z,33.17
2018-10-06T05:09:31.056Z,34.30
2018-10-06T05:10:30.974Z,34.69
2018-10-06T05:11:30.916Z,33.36
2018-10-06T05:12:30.915Z,30.60
2018-10-06T05:13:30.848Z,31.55
2018-10-06T05:14:30.872Z,29.74
2018-10-06T05:15:30.779Z,29.64
2018-10-06T05:16:30.716Z,31.74
2018-10-06T05:17:30.682Z,30.98
2018-10-06T05:18:30.655Z,31.84
2018-10-06T05:19:30.618Z,31.07
2018-10-06T05:20:30.573Z,30.98
2018-10-06T05:21:30.549Z,28.60
2018-10-06T05:22:30.503Z,29.36
2018-10-06T05:23:30.514Z,29.17
2018-10-06T05:24:30.429Z,28.70
2018-10-06T05:25:30.399Z,29.08
2018-10-06T05:26:30.328Z,27.65
2018-10-06T05:27:30.267Z,26.89
2018-10-06T05:28:30.233Z,29.46
2018-10-06T05:29:30.198Z,29.17
2018-10-06T05:30:30.183Z,29.08
2018-10-06T05:31:30.115Z,34.40
2018-10-06T05:32:30.120Z,29.84
2018-10-06T05:33:30.050Z,28.13
2018-10-06T05:34:30.002Z,29.55
2018-10-06T05:35:29.963Z,30.41
2018-10-06T05:36:29.920Z,31.93
2018-10-06T05:37:29.880Z,32.78
2018-10-06T05:38:29.832Z,33.17
2018-10-06T05:39:29.855Z,29.38
2018-10-06T05:40:29.788Z,30.98
2018-10-06T05:41:29.720Z,31.17
2018-10-06T05:42:29.679Z,29.66
2018-10-06T05:43:29.643Z,31.47
2018-10-06T05:44:29.610Z,34.13
2018-10-06T05:45:29.572Z,33.37
2018-10-06T05:46:29.551Z,31.66
2018-10-06T05:47:29.488Z,33.18
2018-10-06T05:48:29.427Z,35.17
2018-10-06T05:49:29.397Z,34.51
2018-10-06T05:50:29.353Z,34.80
2018-10-06T05:51:29.319Z,35.17
2018-10-06T05:52:29.279Z,34.51
2018-10-06T05:53:29.222Z,36.51
2018-10-06T05:54:29.232Z,37.08
2018-10-06T05:55:29.152Z,38.51
2018-10-06T05:56:29.106Z,36.22
2018-10-06T05:57:29.065Z,35.84
2018-10-06T05:58:29.009Z,34.61
2018-10-06T05:59:28.997Z,34.23
2018-10-06T06:00:28.961Z,31.68
2018-10-06T06:01:28.941Z,33.29
2018-10-06T06:02:28.912Z,34.44
2018-10-06T06:03:28.854Z,36.05
2018-10-06T06:04:28.785Z,35.48
2018-10-06T06:05:28.763Z,36.91
2018-10-06T06:06:28.722Z,34.63
2018-10-06T06:07:28.717Z,35.19
2018-10-06T06:08:28.616Z,36.05
2018-10-06T06:09:28.582Z,35.67
2018-10-06T06:10:28.545Z,38.62
2018-10-06T06:11:28.525Z,36.72
2018-10-06T06:12:28.544Z,37.10
2018-10-06T06:13:28.449Z,38.43
2018-10-06T06:14:28.390Z,38.17
2018-10-06T06:15:28.415Z,40.16
2018-10-06T06:16:28.330Z,40.45
2018-10-06T06:17:28.267Z,37.40
2018-10-06T06:18:28.251Z,36.35
2018-10-06T06:19:28.187Z,36.83
2018-10-06T06:20:28.177Z,39.31
2018-10-06T06:21:28.138Z,42.25
2018-10-06T06:22:28.085Z,44.85
2018-10-06T06:23:28.034Z,47.04
2018-10-06T06:24:28.039Z,48.08
2018-10-06T06:25:27.966Z,52.37
2018-10-06T06:26:27.907Z,50.94
2018-10-06T06:27:27.864Z,51.51
2018-10-06T06:28:27.831Z,52.94
2018-10-06T06:29:27.812Z,54.08
2018-10-06T06:30:27.750Z,51.42
2018-10-06T06:31:27.783Z,52.49
2018-10-06T06:32:27.681Z,52.40
2018-10-06T06:33:27.698Z,55.16
2018-10-06T06:34:27.665Z,57.26
2018-10-06T06:35:27.550Z,58.21
2018-10-06T06:36:27.521Z,60.40
2018-10-06T06:37:27.476Z,59.54
2018-10-06T06:38:27.482Z,57.07
2018-10-06T06:39:27.385Z,63.73
2018-10-06T06:40:27.351Z,67.45
2018-10-06T06:41:27.336Z,75.36
2018-10-06T06:42:27.302Z,76.25
2018-10-06T06:43:27.279Z,74.44
2018-10-06T06:44:27.334Z,74.44
2018-10-06T06:45:27.178Z,74.35
2018-10-06T06:46:27.153Z,73.21
2018-10-06T06:47:27.095Z,73.21
2018-10-06T06:48:27.054Z,74.44
2018-10-06T06:49:27.030Z,75.53
2018-10-06T06:50:26.987Z,76.01
2018-10-06T06:51:26.954Z,75.81
2018-10-06T06:52:26.931Z,78.77
2018-10-06T06:53:26.862Z,81.35
2018-10-06T06:54:26.843Z,83.73
2018-10-06T06:55:26.801Z,82.59
2018-10-06T06:56:26.745Z,82.97
2018-10-06T06:57:26.934Z,86.59
2018-10-06T06:58:26.793Z,87.16
2018-10-06T06:59:26.637Z,88.69
2018-10-06T07:00:26.593Z,86.88
2018-10-06T07:01:26.543Z,87.83
2018-10-06T07:02:26.508Z,84.40
2018-10-06T07:03:26.487Z,90.31
2018-10-06T07:04:26.448Z,89.45
2018-10-06T07:05:26.418Z,87.83
2018-10-06T07:06:26.373Z,88.88
2018-10-06T07:07:26.325Z,88.92
2018-10-06T07:08:26.283Z,92.03
2018-10-06T07:09:26.240Z,90.17
2018-10-06T07:10:26.210Z,89.21
2018-10-06T07:11:26.177Z,91.88
2018-10-06T07:12:26.191Z,94.07
2018-10-06T07:13:26.088Z,93.12
2018-10-06T07:14:26.082Z,93.12
2018-10-06T07:15:26.034Z,93.36
2018-10-06T07:16:25.994Z,94.79
2018-10-06T07:17:25.957Z,99.99
2018-10-06T07:18:25.940Z,99.99
2018-10-06T07:19:25.879Z,99.99
2018-10-06T07:20:25.854Z,99.99
2018-10-06T07:21:25.794Z,99.99
2018-10-06T07:22:25.757Z,99.99
2018-10-06T07:23:25.751Z,99.99
2018-10-06T07:24:25.698Z,99.99
2018-10-06T07:25:25.678Z,99.99
2018-10-06T07:26:25.637Z,99.99
2018-10-06T07:27:25.602Z,99.99
2018-10-06T07:28:25.675Z,99.99
2018-10-06T07:29:25.527Z,99.99
2018-10-06T07:30:25.483Z,99.99
2018-10-06T07:31:25.454Z,99.99
2018-10-06T07:32:25.425Z,99.99
2018-10-06T07:33:25.397Z,99.99
2018-10-06T07:34:25.412Z,99.99
2018-10-06T07:35:25.391Z,99.99
2018-10-06T07:36:25.272Z,99.99
2018-10-06T07:37:25.353Z,99.99
2018-10-06T07:38:25.229Z,99.99
2018-10-06T07:39:25.252Z,99.99
2018-10-06T07:40:25.145Z,99.99
2018-10-06T07:41:25.118Z,99.99
2018-10-06T07:42:25.054Z,99.99
2018-10-06T07:43:25.065Z,99.99
2018-10-06T07:44:25.003Z,99.99
2018-10-06T07:45:24.954Z,99.99
2018-10-06T07:46:24.940Z,99.99
2018-10-06T07:47:24.915Z,99.99
2018-10-06T07:48:24.930Z,99.99
2018-10-06T07:49:24.844Z,99.99
2018-10-06T07:50:24.787Z,99.99
2018-10-06T07:51:24.841Z,99.99
2018-10-06T07:52:24.745Z,99.99
2018-10-06T07:53:24.699Z,99.99
2018-10-06T07:54:24.659Z,99.99
2018-10-06T07:55:24.662Z,99.99
2018-10-06T07:56:24.629Z,99.99
2018-10-06T07:57:24.576Z,99.99
2018-10-06T07:58:24.541Z,99.99
2018-10-06T07:59:24.528Z,99.99
2018-10-06T08:00:24.504Z,99.99
2018-10-06T08:01:24.470Z,99.99
2018-10-06T08:02:24.470Z,99.99
2018-10-06T08:03:24.476Z,99.99
2018-10-06T08:04:24.339Z,99.99
2018-10-06T08:05:24.298Z,99.99
2018-10-06T08:06:24.270Z,99.99
2018-10-06T08:07:24.259Z,99.99
2018-10-06T08:08:24.217Z,99.99
2018-10-06T08:09:24.187Z,99.99
2018-10-06T08:10:24.149Z,99.99
2018-10-06T08:11:24.113Z,99.99
2018-10-06T08:12:24.073Z,99.99
2018-10-06T08:13:24.067Z,99.99
2018-10-06T08:14:24.039Z,99.99
2018-10-06T08:15:24.016Z,99.99
2018-10-06T08:16:23.958Z,99.99
2018-10-06T08:17:23.948Z,99.99
2018-10-06T08:18:23.903Z,99.99
2018-10-06T08:19:23.873Z,99.99
2018-10-06T08:20:23.830Z,99.99
2018-10-06T08:21:23.826Z,99.99
2018-10-06T08:22:23.789Z,99.99
2018-10-06T08:23:23.756Z,99.99
2018-10-06T08:24:23.713Z,99.99
2018-10-06T08:25:23.691Z,99.99
2018-10-06T08:26:23.659Z,99.99
2018-10-06T08:27:23.612Z,99.99
2018-10-06T08:28:23.591Z,98.39
2018-10-06T08:29:23.546Z,91.02
2018-10-06T08:30:23.526Z,90.38
2018-10-06T08:31:23.492Z,87.78
2018-10-06T08:32:23.490Z,88.17
2018-10-06T08:33:23.452Z,88.07
2018-10-06T08:34:23.391Z,83.73
2018-10-06T08:35:23.368Z,85.27
2018-10-06T08:36:23.359Z,86.28
2018-10-06T08:37:23.330Z,80.78
2018-10-06T08:38:23.297Z,81.88
2018-10-06T08:39:23.279Z,78.41
2018-10-06T08:40:23.249Z,79.12
2018-10-06T08:41:23.207Z,79.12
2018-10-06T08:42:23.181Z,75.54
2018-10-06T08:43:23.180Z,74.38
2018-10-06T08:44:24.236Z,76.32
2018-10-06T08:45:23.103Z,78.38
2018-10-06T08:46:23.062Z,74.96
2018-10-06T08:47:23.057Z,73.80
2018-10-06T08:48:23.017Z,77.19
2018-10-06T08:49:23.161Z,76.22
2018-10-06T08:50:23.070Z,75.16
2018-10-06T08:51:22.963Z,75.45
2018-10-06T08:52:22.915Z,76.95
2018-10-06T08:53:22.888Z,75.54
2018-10-06T08:54:22.864Z,76.22
2018-10-06T08:55:22.829Z,77.73
2018-10-06T08:56:23.071Z,78.06
2018-10-06T08:57:22.778Z,75.35
2018-10-06T08:58:22.770Z,76.74
2018-10-06T08:59:22.725Z,72.08
2018-10-06T09:00:22.720Z,72.36
2018-10-06T09:01:22.671Z,71.98
2018-10-06T09:02:22.655Z,72.56
2018-10-06T09:03:22.641Z,72.17
2018-10-06T09:04:22.651Z,71.98
2018-10-06T09:05:22.593Z,69.85
2018-10-06T09:06:22.589Z,68.91
2018-10-06T09:07:22.542Z,70.40
2018-10-06T09:08:22.509Z,68.56
2018-10-06T09:09:22.518Z,68.91
2018-10-06T09:10:22.469Z,70.40
2018-10-06T09:11:22.585Z,68.21
2018-10-06T09:12:22.420Z,68.66
2018-10-06T09:13:22.417Z,66.92
2018-10-06T09:14:22.359Z,67.40
2018-10-06T09:15:22.360Z,69.69
2018-10-06T09:16:22.348Z,68.63
2018-10-06T09:17:22.310Z,68.53
2018-10-06T09:18:22.285Z,68.85
2018-10-06T09:19:22.270Z,68.30
2018-10-06T09:20:22.241Z,66.99
2018-10-06T09:21:22.230Z,65.05
2018-10-06T09:22:22.206Z,65.79
2018-10-06T09:23:22.179Z,66.27
2018-10-06T09:24:22.150Z,68.66
2018-10-06T09:25:22.142Z,68.33
2018-10-06T09:26:22.105Z,67.40
2018-10-06T09:27:22.078Z,66.53
2018-10-06T09:28:22.116Z,66.05
2018-10-06T09:29:22.050Z,66.53
2018-10-06T09:30:22.030Z,67.18
2018-10-06T09:31:21.999Z,67.18
2018-10-06T09:32:21.985Z,68.96
2018-10-06T09:33:21.961Z,64.59
2018-10-06T09:34:21.925Z,63.17
2018-10-06T09:35:21.919Z,63.10
2018-10-06T09:36:21.891Z,63.59
2018-10-06T09:37:21.850Z,63.07
2018-10-06T09:38:21.845Z,61.05
2018-10-06T09:39:21.803Z,58.50
2018-10-06T09:40:21.787Z,59.34
2018-10-06T09:41:21.769Z,59.18
2018-10-06T09:42:21.980Z,59.28
2018-10-06T09:43:21.724Z,59.28
2018-10-06T09:44:21.699Z,59.95
2018-10-06T09:45:21.739Z,59.83
2018-10-06T09:46:21.733Z,62.62
2018-10-06T09:47:21.630Z,62.35
2018-10-06T09:48:21.645Z,60.05
2018-10-06T09:49:21.632Z,60.77
2018-10-06T09:50:21.572Z,58.17
2018-10-06T09:51:21.567Z,59.01
2018-10-06T09:52:22.476Z,59.50
2018-10-06T09:53:21.533Z,59.14
2018-10-06T09:54:21.523Z,58.82
2018-10-06T09:55:21.493Z,57.75
2018-10-06T09:56:21.449Z,58.72
2018-10-06T09:57:21.460Z,57.07
2018-10-06T09:58:21.421Z,58.04
2018-10-06T09:59:21.399Z,58.36
2018-10-06T10:00:21.366Z,57.49
2018-10-06T10:01:26.940Z,58.17
2018-10-06T10:02:21.357Z,57.56
2018-10-06T10:04:17.474Z,59.38
2018-10-06T10:05:17.433Z,57.95
2018-10-06T10:07:12.016Z,57.20
2018-10-06T10:08:11.849Z,57.03
2018-10-06T10:10:05.004Z,57.82
2018-10-06T10:11:04.936Z,59.44
2018-10-06T10:12:58.072Z,60.84
2018-10-06T10:13:58.026Z,60.25
2018-10-06T10:15:51.246Z,61.25
2018-10-06T10:16:51.077Z,62.55
2018-10-06T10:18:44.209Z,64.98
2018-10-06T10:19:44.129Z,66.30
2018-10-06T10:21:37.340Z,66.99
2018-10-06T10:22:37.157Z,67.27
2018-10-06T10:24:30.432Z,66.05
2018-10-06T10:25:30.166Z,66.24
2018-10-06T10:27:23.307Z,65.98
2018-10-06T10:28:23.313Z,66.08
2018-10-06T10:30:16.402Z,64.85
2018-10-06T10:31:16.361Z,64.20
2018-10-06T10:33:09.462Z,63.43
2018-10-06T10:34:09.436Z,64.53
2018-10-06T10:36:02.470Z,62.84
2018-10-06T10:37:02.498Z,63.10
2018-10-06T10:38:55.636Z,62.98
2018-10-06T10:39:55.485Z,64.11
2018-10-06T10:41:48.662Z,62.52
2018-10-06T10:42:48.566Z,62.98
2018-10-06T10:44:41.709Z,63.88
2018-10-06T10:45:41.638Z,63.30
2018-10-06T10:47:34.664Z,64.79
2018-10-06T10:48:34.598Z,66.78
2018-10-06T10:50:27.728Z,67.24
2018-10-06T10:51:27.650Z,66.34
2018-10-06T10:53:20.801Z,65.82
2018-10-06T10:54:20.694Z,68.37
2018-10-06T10:56:14.370Z,63.95
2018-10-06T10:57:14.167Z,64.56
2018-10-06T10:59:08.771Z,62.33
2018-10-06T11:00:08.707Z,62.07
2018-10-06T11:02:01.847Z,59.90
2018-10-06T11:03:01.657Z,59.08
2018-10-06T11:04:56.331Z,57.36
2018-10-06T11:05:56.131Z,56.81
2018-10-06T11:07:49.265Z,57.32
2018-10-06T11:08:49.210Z,56.27
2018-10-06T11:10:42.779Z,60.36
2018-10-06T11:11:42.714Z,60.53
2018-10-06T11:12:42.632Z,57.12
2018-10-06T11:13:42.801Z,56.81
2018-10-06T11:14:42.579Z,60.25
2018-10-06T11:15:42.555Z,59.54
2018-10-06T11:16:42.544Z,64.78
2018-10-06T11:17:42.519Z,59.12
2018-10-06T11:18:42.497Z,60.38
2018-10-06T11:19:42.478Z,66.63
2018-10-06T11:20:42.463Z,63.04
2018-10-06T11:21:42.443Z,62.68
2018-10-06T11:22:42.404Z,60.96
2018-10-06T11:23:42.378Z,57.29
2018-10-06T11:24:42.392Z,57.03
2018-10-06T11:25:42.338Z,55.25
2018-10-06T11:26:42.316Z,55.44
2018-10-06T11:27:42.296Z,55.83
2018-10-06T11:28:42.282Z,56.25
2018-10-06T11:29:42.248Z,55.64
2018-10-06T11:30:42.222Z,56.41
2018-10-06T11:31:42.241Z,55.15
2018-10-06T11:32:42.193Z,55.80
2018-10-06T11:33:42.161Z,58.75
2018-10-06T11:34:42.145Z,56.41
2018-10-06T11:35:42.125Z,55.90
2018-10-06T11:36:42.115Z,57.65
2018-10-06T11:37:42.277Z,57.00
2018-10-06T11:38:42.056Z,58.75
2018-10-06T11:39:42.034Z,59.56
2018-10-06T11:40:42.014Z,58.71
2018-10-06T11:41:41.996Z,54.72
2018-10-06T11:42:41.964Z,55.30
2018-10-06T11:43:41.972Z,54.52
2018-10-06T11:44:41.948Z,54.36
2018-10-06T11:45:41.932Z,55.43
2018-10-06T11:46:41.881Z,55.91
2018-10-06T11:47:41.903Z,55.89
2018-10-06T11:48:41.849Z,60.20
2018-10-06T11:49:41.860Z,54.46
2018-10-06T11:50:41.832Z,55.72
2018-10-06T11:51:41.788Z,54.72
2018-10-06T11:52:41.765Z,54.79
2018-10-06T11:53:41.755Z,54.86
2018-10-06T11:54:41.802Z,55.71
2018-10-06T11:55:41.749Z,55.74
2018-10-06T11:56:41.654Z,56.12
2018-10-06T11:57:41.722Z,57.22
2018-10-06T11:58:41.671Z,55.01
2018-10-06T11:59:41.696Z,53.55
2018-10-06T12:00:41.642Z,54.28
2018-10-06T12:01:41.572Z,55.90
2018-10-06T12:02:41.606Z,56.85
2018-10-06T12:03:41.544Z,57.85
2018-10-06T12:04:41.517Z,57.33
2018-10-06T12:05:41.597Z,55.17
2018-10-06T12:06:41.592Z,56.89
2018-10-06T12:07:41.447Z,57.18
2018-10-06T12:08:41.435Z,57.06
2018-10-06T12:09:41.420Z,56.18
2018-10-06T12:10:41.372Z,59.31
2018-10-06T12:11:41.371Z,54.92
2018-10-06T12:12:41.478Z,55.89
2018-10-06T12:13:41.301Z,55.63
2018-10-06T12:14:41.303Z,55.63
2018-10-06T12:15:41.317Z,57.08
2018-10-06T12:16:41.257Z,54.71
2018-10-06T12:17:41.213Z,52.67
2018-10-06T12:18:41.233Z,51.72
2018-10-06T12:19:41.218Z,52.40
2018-10-06T12:20:41.267Z,51.89
2018-10-06T12:21:41.184Z,52.25
2018-10-06T12:22:41.139Z,53.59
2018-10-06T12:23:41.164Z,53.49
2018-10-06T12:24:41.076Z,53.85
2018-10-06T12:25:41.104Z,55.87
2018-10-06T12:26:41.083Z,58.48
2018-10-06T12:27:40.994Z,56.05
2018-10-06T12:28:40.967Z,57.22
2018-10-06T12:29:40.957Z,56.35
2018-10-06T12:30:40.919Z,56.54
2018-10-06T12:31:40.896Z,57.32
2018-10-06T12:32:40.872Z,58.00
2018-10-06T12:33:40.863Z,57.32
2018-10-06T12:34:40.834Z,56.93
2018-10-06T12:35:40.882Z,57.61
2018-10-06T12:36:40.786Z,56.74
2018-10-06T12:37:40.757Z,56.67
2018-10-06T12:38:40.779Z,55.69
2018-10-06T12:39:40.693Z,57.67
2018-10-06T12:40:40.696Z,56.09
2018-10-06T12:41:40.659Z,55.60
2018-10-06T12:42:40.643Z,57.47
2018-10-06T12:43:40.618Z,55.79
2018-10-06T12:44:40.578Z,55.99
2018-10-06T12:45:40.577Z,55.69
2018-10-06T12:46:40.540Z,55.31
2018-10-06T12:47:40.532Z,56.09
2018-10-06T12:48:40.471Z,59.00
2018-10-06T12:49:40.475Z,57.34
2018-10-06T12:50:40.428Z,56.21
2018-10-06T12:51:40.435Z,55.92
2018-10-06T12:52:40.397Z,54.85
2018-10-06T12:53:40.382Z,55.24
2018-10-06T12:54:40.397Z,55.73
2018-10-06T12:55:40.330Z,55.85
2018-10-06T12:56:40.284Z,55.65
2018-10-06T12:57:40.312Z,55.36
2018-10-06T12:58:40.254Z,55.17
2018-10-06T12:59:40.240Z,55.17
2018-10-06T13:00:40.203Z,54.58
2018-10-06T13:01:40.166Z,54.75
2018-10-06T13:02:40.135Z,55.24
2018-10-06T13:03:40.136Z,54.29
2018-10-06T13:04:40.091Z,54.68
2018-10-06T13:05:40.061Z,54.78
2018-10-06T13:06:40.040Z,54.20
2018-10-06T13:07:40.038Z,55.49
2018-10-06T13:08:40.004Z,55.00
2018-10-06T13:09:39.972Z,55.10
2018-10-06T13:10:39.943Z,55.46
2018-10-06T13:11:39.946Z,55.00
2018-10-06T13:12:39.906Z,54.78
2018-10-06T13:13:39.899Z,54.49